sensor_id;sensor_type;location;lat;lon;timestamp;temperature;humidity
70456;DHT22;57916;51.996;5.180;2023-03-01T00:01:27;5.20;60.00
70456;DHT22;57916;51.996;5.180;2023-03-01T00:03:55;5.20;60.10
70456;DHT22;57916;51.996;5.180;2023-03-01T00:06:22;5.20;60.00
70456;DHT22;57916;51.996;5.180;2023-03-01T00:08:49;5.20;60.10
70456;DHT22;57916;51.996;5.180;2023-03-01T00:11:28;5.20;60.00
70456;DHT22;57916;51.996;5.180;2023-03-01T00:13:59;5.20;60.40
70456;DHT22;57916;51.996;5.180;2023-03-01T00:16:30;5.10;60.50
70456;DHT22;57916;51.996;5.180;2023-03-01T00:18:58;5.10;60.60
70456;DHT22;57916;51.996;5.180;2023-03-01T00:21:26;5.00;60.80
70456;DHT22;57916;51.996;5.180;2023-03-01T00:23:53;4.90;61.00
70456;DHT22;57916;51.996;5.180;2023-03-01T00:26:22;4.80;61.30
70456;DHT22;57916;51.996;5.180;2023-03-01T00:28:49;4.80;61.50
70456;DHT22;57916;51.996;5.180;2023-03-01T00:31:19;4.80;61.40
70456;DHT22;57916;51.996;5.180;2023-03-01T00:33:47;4.80;60.80
70456;DHT22;57916;51.996;5.180;2023-03-01T00:36:15;4.80;60.60
70456;DHT22;57916;51.996;5.180;2023-03-01T00:38:44;4.80;60.50
70456;DHT22;57916;51.996;5.180;2023-03-01T00:41:14;4.90;61.00
70456;DHT22;57916;51.996;5.180;2023-03-01T00:43:42;4.80;61.00
70456;DHT22;57916;51.996;5.180;2023-03-01T00:46:11;4.80;61.30
70456;DHT22;57916;51.996;5.180;2023-03-01T00:48:38;4.70;60.60
70456;DHT22;57916;51.996;5.180;2023-03-01T00:53:33;4.70;60.20
70456;DHT22;57916;51.996;5.180;2023-03-01T00:56:00;4.70;60.30
70456;DHT22;57916;51.996;5.180;2023-03-01T00:58:27;4.70;60.30
70456;DHT22;57916;51.996;5.180;2023-03-01T01:00:54;4.70;60.20
70456;DHT22;57916;51.996;5.180;2023-03-01T01:03:21;4.60;60.20
70456;DHT22;57916;51.996;5.180;2023-03-01T01:05:48;4.60;60.30
70456;DHT22;57916;51.996;5.180;2023-03-01T01:08:14;4.60;60.70
70456;DHT22;57916;51.996;5.180;2023-03-01T01:10:44;4.50;61.50
70456;DHT22;57916;51.996;5.180;2023-03-01T01:13:11;4.50;61.30
70456;DHT22;57916;51.996;5.180;2023-03-01T01:15:38;4.50;61.10
70456;DHT22;57916;51.996;5.180;2023-03-01T01:18:06;4.50;61.00
70456;DHT22;57916;51.996;5.180;2023-03-01T01:20:35;4.50;62.50
70456;DHT22;57916;51.996;5.180;2023-03-01T01:23:02;4.40;62.10
70456;DHT22;57916;51.996;5.180;2023-03-01T01:25:34;4.40;62.40
70456;DHT22;57916;51.996;5.180;2023-03-01T01:28:01;4.30;62.70
70456;DHT22;57916;51.996;5.180;2023-03-01T01:30:28;4.30;63.10
70456;DHT22;57916;51.996;5.180;2023-03-01T01:32:55;4.30;63.20
70456;DHT22;57916;51.996;5.180;2023-03-01T01:35:22;4.30;63.10
70456;DHT22;57916;51.996;5.180;2023-03-01T01:37:49;4.30;63.00
70456;DHT22;57916;51.996;5.180;2023-03-01T01:40:16;4.30;63.00
70456;DHT22;57916;51.996;5.180;2023-03-01T01:42:43;4.40;62.90
70456;DHT22;57916;51.996;5.180;2023-03-01T01:45:35;4.30;62.90
70456;DHT22;57916;51.996;5.180;2023-03-01T01:48:12;4.30;62.90
70456;DHT22;57916;51.996;5.180;2023-03-01T01:50:40;4.30;63.00
70456;DHT22;57916;51.996;5.180;2023-03-01T01:53:19;4.30;63.10
70456;DHT22;57916;51.996;5.180;2023-03-01T01:55:51;4.30;63.10
70456;DHT22;57916;51.996;5.180;2023-03-01T01:58:20;4.30;63.40
70456;DHT22;57916;51.996;5.180;2023-03-01T02:00:48;4.20;63.20
70456;DHT22;57916;51.996;5.180;2023-03-01T02:03:22;4.20;63.60
70456;DHT22;57916;51.996;5.180;2023-03-01T02:06:04;4.20;64.00
70456;DHT22;57916;51.996;5.180;2023-03-01T02:08:35;4.20;64.20
70456;DHT22;57916;51.996;5.180;2023-03-01T02:11:04;4.20;64.40
70456;DHT22;57916;51.996;5.180;2023-03-01T02:13:32;4.20;64.50
70456;DHT22;57916;51.996;5.180;2023-03-01T02:16:04;4.20;63.90
70456;DHT22;57916;51.996;5.180;2023-03-01T02:18:31;4.20;64.30
70456;DHT22;57916;51.996;5.180;2023-03-01T02:23:32;4.30;64.70
70456;DHT22;57916;51.996;5.180;2023-03-01T02:26:11;4.30;64.70
70456;DHT22;57916;51.996;5.180;2023-03-01T02:28:43;4.30;64.70
70456;DHT22;57916;51.996;5.180;2023-03-01T02:31:15;4.40;64.90
70456;DHT22;57916;51.996;5.180;2023-03-01T02:34:02;4.40;65.00
70456;DHT22;57916;51.996;5.180;2023-03-01T02:36:48;4.40;65.10
70456;DHT22;57916;51.996;5.180;2023-03-01T02:39:19;4.40;64.90
70456;DHT22;57916;51.996;5.180;2023-03-01T02:41:51;4.40;64.80
70456;DHT22;57916;51.996;5.180;2023-03-01T02:44:20;4.40;64.60
70456;DHT22;57916;51.996;5.180;2023-03-01T02:46:50;4.30;64.50
70456;DHT22;57916;51.996;5.180;2023-03-01T02:49:25;4.40;64.70
70456;DHT22;57916;51.996;5.180;2023-03-01T02:54:48;4.40;64.50
70456;DHT22;57916;51.996;5.180;2023-03-01T02:57:18;4.40;64.50
70456;DHT22;57916;51.996;5.180;2023-03-01T02:59:47;4.40;64.40
70456;DHT22;57916;51.996;5.180;2023-03-01T03:02:33;4.30;64.10
70456;DHT22;57916;51.996;5.180;2023-03-01T03:05:25;4.30;64.40
70456;DHT22;57916;51.996;5.180;2023-03-01T03:07:56;4.30;65.20
70456;DHT22;57916;51.996;5.180;2023-03-01T03:10:26;4.20;64.30
70456;DHT22;57916;51.996;5.180;2023-03-01T03:12:59;4.20;64.50
70456;DHT22;57916;51.996;5.180;2023-03-01T03:15:27;4.20;64.70
70456;DHT22;57916;51.996;5.180;2023-03-01T03:17:55;4.20;64.70
70456;DHT22;57916;51.996;5.180;2023-03-01T03:20:25;4.20;64.60
70456;DHT22;57916;51.996;5.180;2023-03-01T03:22:54;4.20;65.00
70456;DHT22;57916;51.996;5.180;2023-03-01T03:25:22;4.20;65.00
70456;DHT22;57916;51.996;5.180;2023-03-01T03:27:50;4.20;65.00
70456;DHT22;57916;51.996;5.180;2023-03-01T03:30:30;4.20;65.00
70456;DHT22;57916;51.996;5.180;2023-03-01T03:32:58;4.30;64.80
70456;DHT22;57916;51.996;5.180;2023-03-01T03:35:49;4.30;64.70
70456;DHT22;57916;51.996;5.180;2023-03-01T03:38:16;4.30;64.30
70456;DHT22;57916;51.996;5.180;2023-03-01T03:40:46;4.40;64.10
70456;DHT22;57916;51.996;5.180;2023-03-01T03:43:16;4.30;63.90
70456;DHT22;57916;51.996;5.180;2023-03-01T03:45:47;4.30;63.60
70456;DHT22;57916;51.996;5.180;2023-03-01T03:48:14;4.30;63.10
70456;DHT22;57916;51.996;5.180;2023-03-01T03:50:47;4.30;62.40
70456;DHT22;57916;51.996;5.180;2023-03-01T03:53:16;4.20;62.70
70456;DHT22;57916;51.996;5.180;2023-03-01T03:55:43;4.10;63.00
70456;DHT22;57916;51.996;5.180;2023-03-01T03:58:11;4.10;62.40
70456;DHT22;57916;51.996;5.180;2023-03-01T04:00:41;4.10;62.20
70456;DHT22;57916;51.996;5.180;2023-03-01T04:03:09;4.00;62.30
70456;DHT22;57916;51.996;5.180;2023-03-01T04:05:38;4.00;62.30
70456;DHT22;57916;51.996;5.180;2023-03-01T04:08:05;4.00;62.20
70456;DHT22;57916;51.996;5.180;2023-03-01T04:10:38;4.00;62.50
70456;DHT22;57916;51.996;5.180;2023-03-01T04:13:07;3.90;63.00
70456;DHT22;57916;51.996;5.180;2023-03-01T04:15:34;3.90;63.20
70456;DHT22;57916;51.996;5.180;2023-03-01T04:18:01;3.90;63.10
70456;DHT22;57916;51.996;5.180;2023-03-01T04:20:30;3.90;63.00
70456;DHT22;57916;51.996;5.180;2023-03-01T04:23:00;4.00;63.10
70456;DHT22;57916;51.996;5.180;2023-03-01T04:25:53;4.00;62.90
70456;DHT22;57916;51.996;5.180;2023-03-01T04:28:28;4.00;62.40
70456;DHT22;57916;51.996;5.180;2023-03-01T04:30:57;4.00;61.90
70456;DHT22;57916;51.996;5.180;2023-03-01T04:33:25;4.00;61.70
70456;DHT22;57916;51.996;5.180;2023-03-01T04:35:52;3.90;61.50
70456;DHT22;57916;51.996;5.180;2023-03-01T04:38:20;3.90;61.70
70456;DHT22;57916;51.996;5.180;2023-03-01T04:40:48;3.90;61.90
70456;DHT22;57916;51.996;5.180;2023-03-01T04:43:15;3.90;61.90
70456;DHT22;57916;51.996;5.180;2023-03-01T04:45:42;3.90;61.80
70456;DHT22;57916;51.996;5.180;2023-03-01T04:48:09;3.90;61.60
70456;DHT22;57916;51.996;5.180;2023-03-01T04:50:36;3.80;61.50
70456;DHT22;57916;51.996;5.180;2023-03-01T04:53:03;3.90;61.50
70456;DHT22;57916;51.996;5.180;2023-03-01T04:55:30;3.80;61.60
70456;DHT22;57916;51.996;5.180;2023-03-01T04:57:58;3.80;61.70
70456;DHT22;57916;51.996;5.180;2023-03-01T05:00:25;3.80;61.70
70456;DHT22;57916;51.996;5.180;2023-03-01T05:02:58;3.80;61.50
70456;DHT22;57916;51.996;5.180;2023-03-01T05:05:37;3.70;61.10
70456;DHT22;57916;51.996;5.180;2023-03-01T05:08:07;3.70;60.70
70456;DHT22;57916;51.996;5.180;2023-03-01T05:10:35;3.70;60.80
70456;DHT22;57916;51.996;5.180;2023-03-01T05:13:03;3.60;60.80
70456;DHT22;57916;51.996;5.180;2023-03-01T05:15:31;3.60;61.00
70456;DHT22;57916;51.996;5.180;2023-03-01T05:17:59;3.50;61.10
70456;DHT22;57916;51.996;5.180;2023-03-01T05:20:27;3.60;61.20
70456;DHT22;57916;51.996;5.180;2023-03-01T05:22:57;3.50;61.30
70456;DHT22;57916;51.996;5.180;2023-03-01T05:25:26;3.50;61.30
70456;DHT22;57916;51.996;5.180;2023-03-01T05:27:53;3.50;61.40
70456;DHT22;57916;51.996;5.180;2023-03-01T05:30:20;3.50;61.70
70456;DHT22;57916;51.996;5.180;2023-03-01T05:32:50;3.50;61.40
70456;DHT22;57916;51.996;5.180;2023-03-01T05:35:22;3.50;61.20
70456;DHT22;57916;51.996;5.180;2023-03-01T05:37:50;3.50;61.20
70456;DHT22;57916;51.996;5.180;2023-03-01T05:40:19;3.50;61.50
70456;DHT22;57916;51.996;5.180;2023-03-01T05:42:49;3.50;61.50
70456;DHT22;57916;51.996;5.180;2023-03-01T05:45:17;3.50;61.20
70456;DHT22;57916;51.996;5.180;2023-03-01T05:47:45;3.50;61.30
70456;DHT22;57916;51.996;5.180;2023-03-01T05:50:15;3.50;61.50
70456;DHT22;57916;51.996;5.180;2023-03-01T05:52:47;3.50;61.60
70456;DHT22;57916;51.996;5.180;2023-03-01T05:55:20;3.50;61.80
70456;DHT22;57916;51.996;5.180;2023-03-01T05:57:47;3.50;61.80
70456;DHT22;57916;51.996;5.180;2023-03-01T06:00:16;3.50;62.10
70456;DHT22;57916;51.996;5.180;2023-03-01T06:02:43;3.50;62.20
70456;DHT22;57916;51.996;5.180;2023-03-01T06:05:12;3.50;62.10
70456;DHT22;57916;51.996;5.180;2023-03-01T06:07:40;3.50;61.60
70456;DHT22;57916;51.996;5.180;2023-03-01T06:10:08;3.50;61.30
70456;DHT22;57916;51.996;5.180;2023-03-01T06:12:37;3.50;61.30
70456;DHT22;57916;51.996;5.180;2023-03-01T06:15:05;3.50;61.20
70456;DHT22;57916;51.996;5.180;2023-03-01T06:17:33;3.50;61.30
70456;DHT22;57916;51.996;5.180;2023-03-01T06:20:10;3.50;61.10
70456;DHT22;57916;51.996;5.180;2023-03-01T06:22:38;3.50;60.90
70456;DHT22;57916;51.996;5.180;2023-03-01T06:25:06;3.40;61.00
70456;DHT22;57916;51.996;5.180;2023-03-01T06:27:33;3.40;61.80
70456;DHT22;57916;51.996;5.180;2023-03-01T06:30:00;3.40;61.00
70456;DHT22;57916;51.996;5.180;2023-03-01T06:32:27;3.40;60.80
70456;DHT22;57916;51.996;5.180;2023-03-01T06:34:54;3.40;60.80
70456;DHT22;57916;51.996;5.180;2023-03-01T06:37:21;3.40;60.80
70456;DHT22;57916;51.996;5.180;2023-03-01T06:39:47;3.40;60.80
70456;DHT22;57916;51.996;5.180;2023-03-01T06:42:14;3.40;60.80
70456;DHT22;57916;51.996;5.180;2023-03-01T06:44:41;3.40;60.90
70456;DHT22;57916;51.996;5.180;2023-03-01T06:47:08;3.40;61.10
70456;DHT22;57916;51.996;5.180;2023-03-01T06:49:35;3.40;61.80
70456;DHT22;57916;51.996;5.180;2023-03-01T06:52:02;3.40;61.90
70456;DHT22;57916;51.996;5.180;2023-03-01T06:54:29;3.40;62.10
70456;DHT22;57916;51.996;5.180;2023-03-01T06:56:56;3.50;62.20
70456;DHT22;57916;51.996;5.180;2023-03-01T06:59:23;3.50;62.40
70456;DHT22;57916;51.996;5.180;2023-03-01T07:01:50;3.50;62.40
70456;DHT22;57916;51.996;5.180;2023-03-01T07:04:17;3.50;62.50
70456;DHT22;57916;51.996;5.180;2023-03-01T07:06:44;3.50;62.60
70456;DHT22;57916;51.996;5.180;2023-03-01T07:09:11;3.50;62.70
70456;DHT22;57916;51.996;5.180;2023-03-01T07:11:37;3.50;62.70
70456;DHT22;57916;51.996;5.180;2023-03-01T07:14:04;3.50;62.70
70456;DHT22;57916;51.996;5.180;2023-03-01T07:16:32;3.50;63.00
70456;DHT22;57916;51.996;5.180;2023-03-01T07:19:00;3.50;63.00
70456;DHT22;57916;51.996;5.180;2023-03-01T07:21:27;3.60;62.90
70456;DHT22;57916;51.996;5.180;2023-03-01T07:23:54;3.70;63.10
70456;DHT22;57916;51.996;5.180;2023-03-01T07:26:21;3.80;63.20
70456;DHT22;57916;51.996;5.180;2023-03-01T07:28:50;3.90;63.60
70456;DHT22;57916;51.996;5.180;2023-03-01T07:31:17;4.10;64.10
70456;DHT22;57916;51.996;5.180;2023-03-01T07:33:44;4.40;63.90
70456;DHT22;57916;51.996;5.180;2023-03-01T07:36:14;4.70;63.00
70456;DHT22;57916;51.996;5.180;2023-03-01T07:38:40;5.00;61.70
70456;DHT22;57916;51.996;5.180;2023-03-01T07:41:08;5.20;60.60
70456;DHT22;57916;51.996;5.180;2023-03-01T07:43:35;5.40;60.00
70456;DHT22;57916;51.996;5.180;2023-03-01T07:46:03;5.50;59.60
70456;DHT22;57916;51.996;5.180;2023-03-01T07:48:31;5.60;59.40
70456;DHT22;57916;51.996;5.180;2023-03-01T07:51:02;5.80;58.80
70456;DHT22;57916;51.996;5.180;2023-03-01T07:53:29;6.00;58.50
70456;DHT22;57916;51.996;5.180;2023-03-01T07:56:10;6.20;58.10
70456;DHT22;57916;51.996;5.180;2023-03-01T07:58:39;6.40;57.70
70456;DHT22;57916;51.996;5.180;2023-03-01T08:01:08;6.70;57.10
70456;DHT22;57916;51.996;5.180;2023-03-01T08:03:36;6.90;56.60
70456;DHT22;57916;51.996;5.180;2023-03-01T08:06:06;7.30;56.10
70456;DHT22;57916;51.996;5.180;2023-03-01T08:08:34;7.50;54.80
70456;DHT22;57916;51.996;5.180;2023-03-01T08:11:03;7.60;54.10
70456;DHT22;57916;51.996;5.180;2023-03-01T08:13:31;7.80;53.80
70456;DHT22;57916;51.996;5.180;2023-03-01T08:16:03;7.80;53.50
70456;DHT22;57916;51.996;5.180;2023-03-01T08:18:30;8.00;53.40
70456;DHT22;57916;51.996;5.180;2023-03-01T08:21:05;8.10;53.40
70456;DHT22;57916;51.996;5.180;2023-03-01T08:23:32;8.20;53.00
70456;DHT22;57916;51.996;5.180;2023-03-01T08:26:08;8.30;52.60
70456;DHT22;57916;51.996;5.180;2023-03-01T08:28:36;8.20;52.80
70456;DHT22;57916;51.996;5.180;2023-03-01T08:31:12;8.20;52.60
70456;DHT22;57916;51.996;5.180;2023-03-01T08:33:39;8.00;52.70
70456;DHT22;57916;51.996;5.180;2023-03-01T08:36:07;7.90;53.60
70456;DHT22;57916;51.996;5.180;2023-03-01T08:38:35;7.80;54.50
70456;DHT22;57916;51.996;5.180;2023-03-01T08:41:03;7.90;54.70
70456;DHT22;57916;51.996;5.180;2023-03-01T08:43:30;8.00;54.80
70456;DHT22;57916;51.996;5.180;2023-03-01T08:45:57;8.00;55.60
70456;DHT22;57916;51.996;5.180;2023-03-01T08:48:24;8.00;54.40
70456;DHT22;57916;51.996;5.180;2023-03-01T08:50:51;8.10;54.60
70456;DHT22;57916;51.996;5.180;2023-03-01T08:53:18;8.30;54.50
70456;DHT22;57916;51.996;5.180;2023-03-01T08:55:45;8.60;53.50
70456;DHT22;57916;51.996;5.180;2023-03-01T08:58:13;9.00;52.60
70456;DHT22;57916;51.996;5.180;2023-03-01T09:00:40;9.20;51.10
70456;DHT22;57916;51.996;5.180;2023-03-01T09:03:07;9.20;50.70
70456;DHT22;57916;51.996;5.180;2023-03-01T09:05:34;9.20;50.10
70456;DHT22;57916;51.996;5.180;2023-03-01T09:08:03;9.30;50.20
70456;DHT22;57916;51.996;5.180;2023-03-01T09:10:29;9.20;50.00
70456;DHT22;57916;51.996;5.180;2023-03-01T09:12:57;9.10;50.60
70456;DHT22;57916;51.996;5.180;2023-03-01T09:15:23;9.00;50.20
70456;DHT22;57916;51.996;5.180;2023-03-01T09:17:50;8.90;50.90
70456;DHT22;57916;51.996;5.180;2023-03-01T09:20:18;9.00;51.70
70456;DHT22;57916;51.996;5.180;2023-03-01T09:22:45;9.00;50.40
70456;DHT22;57916;51.996;5.180;2023-03-01T09:25:12;8.90;50.70
70456;DHT22;57916;51.996;5.180;2023-03-01T09:27:38;8.90;50.80
70456;DHT22;57916;51.996;5.180;2023-03-01T09:30:08;9.00;50.90
70456;DHT22;57916;51.996;5.180;2023-03-01T09:32:35;9.20;52.30
70456;DHT22;57916;51.996;5.180;2023-03-01T09:35:02;9.40;50.30
70456;DHT22;57916;51.996;5.180;2023-03-01T09:37:33;9.60;50.30
70456;DHT22;57916;51.996;5.180;2023-03-01T09:40:01;9.90;49.50
70456;DHT22;57916;51.996;5.180;2023-03-01T09:42:34;10.10;49.20
70456;DHT22;57916;51.996;5.180;2023-03-01T09:45:18;10.10;47.30
70456;DHT22;57916;51.996;5.180;2023-03-01T09:47:47;10.10;47.30
70456;DHT22;57916;51.996;5.180;2023-03-01T09:50:18;10.10;46.50
70456;DHT22;57916;51.996;5.180;2023-03-01T09:53:06;10.20;45.60
70456;DHT22;57916;51.996;5.180;2023-03-01T09:55:48;10.40;44.50
70456;DHT22;57916;51.996;5.180;2023-03-01T10:09:41;10.50;43.90
70456;DHT22;57916;51.996;5.180;2023-03-01T10:12:16;10.50;43.30
70456;DHT22;57916;51.996;5.180;2023-03-01T10:17:51;10.40;43.50
70456;DHT22;57916;51.996;5.180;2023-03-01T10:20:23;10.50;43.00
70456;DHT22;57916;51.996;5.180;2023-03-01T10:22:51;10.70;42.60
70456;DHT22;57916;51.996;5.180;2023-03-01T10:28:26;10.80;42.60
70456;DHT22;57916;51.996;5.180;2023-03-01T10:30:57;11.10;43.20
70456;DHT22;57916;51.996;5.180;2023-03-01T10:33:29;11.30;42.90
70456;DHT22;57916;51.996;5.180;2023-03-01T10:35:57;11.30;42.90
70456;DHT22;57916;51.996;5.180;2023-03-01T10:38:24;11.30;42.70
70456;DHT22;57916;51.996;5.180;2023-03-01T10:41:00;11.20;42.10
70456;DHT22;57916;51.996;5.180;2023-03-01T10:43:47;11.10;42.00
70456;DHT22;57916;51.996;5.180;2023-03-01T10:46:34;11.00;42.10
70456;DHT22;57916;51.996;5.180;2023-03-01T10:49:21;11.00;42.00
70456;DHT22;57916;51.996;5.180;2023-03-01T10:51:51;11.00;41.40
70456;DHT22;57916;51.996;5.180;2023-03-01T10:54:26;10.90;41.00
70456;DHT22;57916;51.996;5.180;2023-03-01T10:56:56;10.80;42.10
70456;DHT22;57916;51.996;5.180;2023-03-01T10:59:32;10.70;41.60
70456;DHT22;57916;51.996;5.180;2023-03-01T11:05:03;11.00;41.80
70456;DHT22;57916;51.996;5.180;2023-03-01T11:10:22;11.10;41.80
70456;DHT22;57916;51.996;5.180;2023-03-01T11:12:51;11.30;41.30
70456;DHT22;57916;51.996;5.180;2023-03-01T11:15:27;11.20;41.40
70456;DHT22;57916;51.996;5.180;2023-03-01T11:17:56;11.30;41.00
70456;DHT22;57916;51.996;5.180;2023-03-01T11:20:36;11.30;41.00
70456;DHT22;57916;51.996;5.180;2023-03-01T11:23:08;11.40;41.10
70456;DHT22;57916;51.996;5.180;2023-03-01T11:25:41;11.60;40.50
70456;DHT22;57916;51.996;5.180;2023-03-01T11:28:14;11.60;40.00
70456;DHT22;57916;51.996;5.180;2023-03-01T11:30:53;11.40;40.00
70456;DHT22;57916;51.996;5.180;2023-03-01T11:36:39;11.00;41.90
70456;DHT22;57916;51.996;5.180;2023-03-01T11:39:26;10.80;40.50
70456;DHT22;57916;51.996;5.180;2023-03-01T11:42:05;10.70;40.70
70456;DHT22;57916;51.996;5.180;2023-03-01T11:44:47;10.60;40.70
70456;DHT22;57916;51.996;5.180;2023-03-01T11:47:32;10.50;40.90
70456;DHT22;57916;51.996;5.180;2023-03-01T11:50:30;10.50;40.90
70456;DHT22;57916;51.996;5.180;2023-03-01T12:02:12;10.50;40.10
70456;DHT22;57916;51.996;5.180;2023-03-01T12:11:14;10.50;39.40
70456;DHT22;57916;51.996;5.180;2023-03-01T12:33:24;10.50;38.30
70456;DHT22;57916;51.996;5.180;2023-03-01T12:41:43;10.30;38.80
70456;DHT22;57916;51.996;5.180;2023-03-01T12:44:24;10.30;38.80
70456;DHT22;57916;51.996;5.180;2023-03-01T12:47:28;10.30;38.10
70456;DHT22;57916;51.996;5.180;2023-03-01T12:50:01;10.40;38.70
70456;DHT22;57916;51.996;5.180;2023-03-01T12:55:34;10.50;38.60
70456;DHT22;57916;51.996;5.180;2023-03-01T12:58:27;10.50;37.70
70456;DHT22;57916;51.996;5.180;2023-03-01T13:04:52;10.40;38.70
70456;DHT22;57916;51.996;5.180;2023-03-01T13:07:30;10.60;38.70
70456;DHT22;57916;51.996;5.180;2023-03-01T13:10:19;10.60;38.50
70456;DHT22;57916;51.996;5.180;2023-03-01T13:18:01;10.70;37.60
70456;DHT22;57916;51.996;5.180;2023-03-01T13:20:45;10.80;38.40
70456;DHT22;57916;51.996;5.180;2023-03-01T13:28:50;11.00;37.80
70456;DHT22;57916;51.996;5.180;2023-03-01T13:33:56;11.10;38.00
70456;DHT22;57916;51.996;5.180;2023-03-01T13:38:57;11.10;37.80
70456;DHT22;57916;51.996;5.180;2023-03-01T13:44:35;10.90;38.10
70456;DHT22;57916;51.996;5.180;2023-03-01T13:47:16;10.90;38.40
70456;DHT22;57916;51.996;5.180;2023-03-01T13:55:19;11.00;37.00
70456;DHT22;57916;51.996;5.180;2023-03-01T13:57:54;11.00;37.00
70456;DHT22;57916;51.996;5.180;2023-03-01T14:05:35;10.80;36.30
70456;DHT22;57916;51.996;5.180;2023-03-01T14:08:05;10.70;36.90
70456;DHT22;57916;51.996;5.180;2023-03-01T14:10:47;10.70;37.10
70456;DHT22;57916;51.996;5.180;2023-03-01T14:13:34;10.80;37.40
70456;DHT22;57916;51.996;5.180;2023-03-01T14:19:24;10.90;37.60
70456;DHT22;57916;51.996;5.180;2023-03-01T14:24:44;11.00;38.00
70456;DHT22;57916;51.996;5.180;2023-03-01T14:27:13;11.00;38.00
70456;DHT22;57916;51.996;5.180;2023-03-01T14:29:41;11.00;36.80
70456;DHT22;57916;51.996;5.180;2023-03-01T14:32:17;10.90;37.10
70456;DHT22;57916;51.996;5.180;2023-03-01T14:34:48;10.90;36.90
70456;DHT22;57916;51.996;5.180;2023-03-01T14:39:51;10.80;36.90
70456;DHT22;57916;51.996;5.180;2023-03-01T14:42:20;10.80;37.50
70456;DHT22;57916;51.996;5.180;2023-03-01T14:44:50;10.90;37.70
70456;DHT22;57916;51.996;5.180;2023-03-01T14:47:31;11.00;37.90
70456;DHT22;57916;51.996;5.180;2023-03-01T14:50:09;11.00;38.20
70456;DHT22;57916;51.996;5.180;2023-03-01T14:52:43;11.00;38.20
70456;DHT22;57916;51.996;5.180;2023-03-01T14:55:32;10.90;38.20
70456;DHT22;57916;51.996;5.180;2023-03-01T14:58:08;11.00;38.30
70456;DHT22;57916;51.996;5.180;2023-03-01T15:00:37;11.00;38.40
70456;DHT22;57916;51.996;5.180;2023-03-01T15:03:14;11.00;38.00
70456;DHT22;57916;51.996;5.180;2023-03-01T15:05:44;11.00;38.00
70456;DHT22;57916;51.996;5.180;2023-03-01T15:08:19;11.00;38.40
70456;DHT22;57916;51.996;5.180;2023-03-01T15:13:40;11.10;38.00
70456;DHT22;57916;51.996;5.180;2023-03-01T15:16:12;11.20;37.50
70456;DHT22;57916;51.996;5.180;2023-03-01T15:18:52;11.20;37.70
70456;DHT22;57916;51.996;5.180;2023-03-01T15:21:30;11.10;37.90
70456;DHT22;57916;51.996;5.180;2023-03-01T15:26:42;10.90;37.90
70456;DHT22;57916;51.996;5.180;2023-03-01T15:29:17;11.00;38.20
70456;DHT22;57916;51.996;5.180;2023-03-01T15:31:56;11.00;38.30
70456;DHT22;57916;51.996;5.180;2023-03-01T15:34:27;11.00;38.30
70456;DHT22;57916;51.996;5.180;2023-03-01T15:36:56;10.90;37.20
70456;DHT22;57916;51.996;5.180;2023-03-01T15:39:39;10.80;36.80
70456;DHT22;57916;51.996;5.180;2023-03-01T15:42:36;10.70;37.40
70456;DHT22;57916;51.996;5.180;2023-03-01T15:45:09;10.70;38.10
70456;DHT22;57916;51.996;5.180;2023-03-01T15:47:39;10.70;38.10
70456;DHT22;57916;51.996;5.180;2023-03-01T15:50:22;10.60;39.10
70456;DHT22;57916;51.996;5.180;2023-03-01T15:52:50;10.60;38.00
70456;DHT22;57916;51.996;5.180;2023-03-01T15:55:29;10.50;38.20
70456;DHT22;57916;51.996;5.180;2023-03-01T16:00:27;10.50;38.60
70456;DHT22;57916;51.996;5.180;2023-03-01T16:02:56;10.50;38.60
70456;DHT22;57916;51.996;5.180;2023-03-01T16:05:32;10.40;38.90
70456;DHT22;57916;51.996;5.180;2023-03-01T16:07:59;10.50;40.00
70456;DHT22;57916;51.996;5.180;2023-03-01T16:10:27;10.50;40.20
70456;DHT22;57916;51.996;5.180;2023-03-01T16:12:54;10.50;40.00
70456;DHT22;57916;51.996;5.180;2023-03-01T16:15:27;10.40;40.10
70456;DHT22;57916;51.996;5.180;2023-03-01T16:17:58;10.40;40.10
70456;DHT22;57916;51.996;5.180;2023-03-01T16:20:26;10.40;40.00
70456;DHT22;57916;51.996;5.180;2023-03-01T16:23:01;10.50;40.60
70456;DHT22;57916;51.996;5.180;2023-03-01T16:25:29;10.50;40.30
70456;DHT22;57916;51.996;5.180;2023-03-01T16:27:56;10.40;40.40
70456;DHT22;57916;51.996;5.180;2023-03-01T16:30:25;10.40;41.60
70456;DHT22;57916;51.996;5.180;2023-03-01T16:32:52;10.30;40.30
70456;DHT22;57916;51.996;5.180;2023-03-01T16:35:21;10.20;40.50
70456;DHT22;57916;51.996;5.180;2023-03-01T16:37:48;10.20;40.60
70456;DHT22;57916;51.996;5.180;2023-03-01T16:40:21;10.10;41.10
70456;DHT22;57916;51.996;5.180;2023-03-01T16:42:49;10.10;40.90
70456;DHT22;57916;51.996;5.180;2023-03-01T16:45:17;10.00;41.00
70456;DHT22;57916;51.996;5.180;2023-03-01T16:47:54;10.00;41.10
70456;DHT22;57916;51.996;5.180;2023-03-01T16:50:22;10.00;41.60
70456;DHT22;57916;51.996;5.180;2023-03-01T16:52:49;9.90;41.80
70456;DHT22;57916;51.996;5.180;2023-03-01T16:55:16;9.90;42.00
70456;DHT22;57916;51.996;5.180;2023-03-01T16:57:43;9.90;42.30
70456;DHT22;57916;51.996;5.180;2023-03-01T17:00:12;9.90;42.70
70456;DHT22;57916;51.996;5.180;2023-03-01T17:02:40;9.80;43.10
70456;DHT22;57916;51.996;5.180;2023-03-01T17:05:09;9.80;43.50
70456;DHT22;57916;51.996;5.180;2023-03-01T17:07:38;9.70;43.60
70456;DHT22;57916;51.996;5.180;2023-03-01T17:10:09;9.70;43.60
70456;DHT22;57916;51.996;5.180;2023-03-01T17:12:36;9.70;43.90
70456;DHT22;57916;51.996;5.180;2023-03-01T17:15:05;9.60;44.10
70456;DHT22;57916;51.996;5.180;2023-03-01T17:17:32;9.60;44.20
70456;DHT22;57916;51.996;5.180;2023-03-01T17:20:01;9.50;44.10
70456;DHT22;57916;51.996;5.180;2023-03-01T17:22:30;9.40;44.30
70456;DHT22;57916;51.996;5.180;2023-03-01T17:24:57;9.30;44.60
70456;DHT22;57916;51.996;5.180;2023-03-01T17:27:24;9.30;44.80
70456;DHT22;57916;51.996;5.180;2023-03-01T17:29:51;9.20;45.00
70456;DHT22;57916;51.996;5.180;2023-03-01T17:32:18;9.20;45.00
70456;DHT22;57916;51.996;5.180;2023-03-01T17:34:45;9.30;45.00
70456;DHT22;57916;51.996;5.180;2023-03-01T17:37:12;9.30;44.80
70456;DHT22;57916;51.996;5.180;2023-03-01T17:39:39;9.30;44.70
70456;DHT22;57916;51.996;5.180;2023-03-01T17:42:06;9.30;44.90
70456;DHT22;57916;51.996;5.180;2023-03-01T17:44:33;9.20;45.30
70456;DHT22;57916;51.996;5.180;2023-03-01T17:47:02;9.10;45.60
70456;DHT22;57916;51.996;5.180;2023-03-01T17:49:30;9.10;46.00
70456;DHT22;57916;51.996;5.180;2023-03-01T17:51:57;9.10;45.90
70456;DHT22;57916;51.996;5.180;2023-03-01T17:54:25;9.10;45.90
70456;DHT22;57916;51.996;5.180;2023-03-01T17:56:52;9.10;45.90
70456;DHT22;57916;51.996;5.180;2023-03-01T17:59:19;9.00;45.90
70456;DHT22;57916;51.996;5.180;2023-03-01T18:01:46;8.90;46.20
70456;DHT22;57916;51.996;5.180;2023-03-01T18:04:13;8.90;46.60
70456;DHT22;57916;51.996;5.180;2023-03-01T18:06:40;8.80;46.50
70456;DHT22;57916;51.996;5.180;2023-03-01T18:09:07;8.70;46.80
70456;DHT22;57916;51.996;5.180;2023-03-01T18:11:34;8.70;46.80
70456;DHT22;57916;51.996;5.180;2023-03-01T18:14:02;8.60;47.00